sensor_id;sensor_type;location;lat;lon;timestamp;P1;durP1;ratioP1;P2;durP2;ratioP2
62911;SDS011;49111;51.028;4.218;2022-07-29T00:00:44;4.20;;;1.58;;
62911;SDS011;49111;51.028;4.218;2022-07-29T00:03:10;3.33;;;1.40;;
62911;SDS011;49111;51.028;4.218;2022-07-29T00:05:38;4.25;;;1.83;;
62911;SDS011;49111;51.028;4.218;2022-07-29T00:08:05;2.08;;;1.60;;
62911;SDS011;49111;51.028;4.218;2022-07-29T00:10:31;4.18;;;1.92;;
62911;SDS011;49111;51.028;4.218;2022-07-29T00:12:58;3.53;;;1.48;;
62911;SDS011;49111;51.028;4.218;2022-07-29T00:15:23;3.88;;;1.73;;
62911;SDS011;49111;51.028;4.218;2022-07-29T00:17:49;4.00;;;1.58;;
62911;SDS011;49111;51.028;4.218;2022-07-29T00:20:15;3.13;;;1.50;;
62911;SDS011;49111;51.028;4.218;2022-07-29T00:22:41;1.67;;;1.42;;
62911;SDS011;49111;51.028;4.218;2022-07-29T00:25:07;2.90;;;1.65;;
62911;SDS011;49111;51.028;4.218;2022-07-29T00:27:34;3.85;;;1.63;;
62911;SDS011;49111;51.028;4.218;2022-07-29T00:30:00;3.75;;;1.83;;
62911;SDS011;49111;51.028;4.218;2022-07-29T00:32:27;4.97;;;1.88;;
62911;SDS011;49111;51.028;4.218;2022-07-29T00:34:53;2.35;;;1.30;;
62911;SDS011;49111;51.028;4.218;2022-07-29T00:37:37;5.93;;;1.58;;
62911;SDS011;49111;51.028;4.218;2022-07-29T00:40:03;4.28;;;1.67;;
62911;SDS011;49111;51.028;4.218;2022-07-29T00:42:30;5.43;;;2.10;;
62911;SDS011;49111;51.028;4.218;2022-07-29T00:44:55;2.45;;;1.30;;
62911;SDS011;49111;51.028;4.218;2022-07-29T00:47:21;6.50;;;2.38;;
62911;SDS011;49111;51.028;4.218;2022-07-29T00:49:47;4.18;;;1.70;;
62911;SDS011;49111;51.028;4.218;2022-07-29T00:52:13;3.22;;;1.80;;
62911;SDS011;49111;51.028;4.218;2022-07-29T00:54:39;4.22;;;1.85;;
62911;SDS011;49111;51.028;4.218;2022-07-29T00:57:08;4.43;;;2.28;;
62911;SDS011;49111;51.028;4.218;2022-07-29T00:59:34;4.53;;;2.20;;
62911;SDS011;49111;51.028;4.218;2022-07-29T01:01:59;5.78;;;2.58;;
62911;SDS011;49111;51.028;4.218;2022-07-29T01:04:25;2.67;;;1.65;;
62911;SDS011;49111;51.028;4.218;2022-07-29T01:06:51;3.92;;;2.00;;
62911;SDS011;49111;51.028;4.218;2022-07-29T01:09:18;4.03;;;1.77;;
62911;SDS011;49111;51.028;4.218;2022-07-29T01:11:45;2.88;;;1.88;;
62911;SDS011;49111;51.028;4.218;2022-07-29T01:14:15;3.17;;;2.05;;
62911;SDS011;49111;51.028;4.218;2022-07-29T01:17:00;3.17;;;1.75;;
62911;SDS011;49111;51.028;4.218;2022-07-29T01:22:19;3.88;;;2.15;;
62911;SDS011;49111;51.028;4.218;2022-07-29T01:30:38;4.43;;;1.90;;
62911;SDS011;49111;51.028;4.218;2022-07-29T01:33:07;5.47;;;1.88;;
62911;SDS011;49111;51.028;4.218;2022-07-29T01:35:56;4.45;;;2.03;;
62911;SDS011;49111;51.028;4.218;2022-07-29T01:38:24;3.75;;;2.20;;
62911;SDS011;49111;51.028;4.218;2022-07-29T01:40:54;4.38;;;2.40;;
62911;SDS011;49111;51.028;4.218;2022-07-29T01:46:52;2.10;;;1.73;;
62911;SDS011;49111;51.028;4.218;2022-07-29T01:49:29;3.92;;;2.05;;
62911;SDS011;49111;51.028;4.218;2022-07-29T01:52:03;5.30;;;2.10;;
62911;SDS011;49111;51.028;4.218;2022-07-29T01:54:38;2.95;;;1.85;;
62911;SDS011;49111;51.028;4.218;2022-07-29T01:57:14;3.97;;;2.30;;
62911;SDS011;49111;51.028;4.218;2022-07-29T01:59:45;5.07;;;2.20;;
62911;SDS011;49111;51.028;4.218;2022-07-29T02:02:13;4.72;;;2.60;;
62911;SDS011;49111;51.028;4.218;2022-07-29T02:04:41;3.58;;;2.03;;
62911;SDS011;49111;51.028;4.218;2022-07-29T02:07:10;3.90;;;2.42;;
62911;SDS011;49111;51.028;4.218;2022-07-29T02:09:41;4.53;;;2.47;;
62911;SDS011;49111;51.028;4.218;2022-07-29T02:12:08;3.25;;;2.15;;
62911;SDS011;49111;51.028;4.218;2022-07-29T02:14:37;5.78;;;2.17;;
62911;SDS011;49111;51.028;4.218;2022-07-29T02:17:07;4.60;;;2.30;;
62911;SDS011;49111;51.028;4.218;2022-07-29T02:19:34;4.80;;;2.60;;
62911;SDS011;49111;51.028;4.218;2022-07-29T02:22:03;3.70;;;2.28;;
62911;SDS011;49111;51.028;4.218;2022-07-29T02:24:30;5.72;;;2.47;;
62911;SDS011;49111;51.028;4.218;2022-07-29T02:26:56;4.93;;;2.35;;
62911;SDS011;49111;51.028;4.218;2022-07-29T02:29:25;6.60;;;2.70;;
62911;SDS011;49111;51.028;4.218;2022-07-29T02:31:53;4.78;;;2.92;;
62911;SDS011;49111;51.028;4.218;2022-07-29T02:34:22;4.10;;;2.80;;
62911;SDS011;49111;51.028;4.218;2022-07-29T02:36:54;3.90;;;2.28;;
62911;SDS011;49111;51.028;4.218;2022-07-29T02:39:21;4.82;;;2.92;;
62911;SDS011;49111;51.028;4.218;2022-07-29T02:41:54;3.60;;;2.38;;
62911;SDS011;49111;51.028;4.218;2022-07-29T02:44:24;5.05;;;2.92;;
62911;SDS011;49111;51.028;4.218;2022-07-29T02:46:59;4.82;;;2.60;;
62911;SDS011;49111;51.028;4.218;2022-07-29T02:49:38;4.38;;;2.47;;
62911;SDS011;49111;51.028;4.218;2022-07-29T02:52:12;5.95;;;2.58;;
62911;SDS011;49111;51.028;4.218;2022-07-29T02:54:50;4.78;;;2.22;;
62911;SDS011;49111;51.028;4.218;2022-07-29T02:57:36;4.80;;;2.70;;
62911;SDS011;49111;51.028;4.218;2022-07-29T03:00:05;5.68;;;2.92;;
62911;SDS011;49111;51.028;4.218;2022-07-29T03:02:34;5.03;;;2.80;;
62911;SDS011;49111;51.028;4.218;2022-07-29T03:05:03;4.00;;;2.55;;
62911;SDS011;49111;51.028;4.218;2022-07-29T03:07:31;4.47;;;2.80;;
62911;SDS011;49111;51.028;4.218;2022-07-29T03:09:58;5.18;;;2.90;;
62911;SDS011;49111;51.028;4.218;2022-07-29T03:12:26;4.63;;;2.47;;
62911;SDS011;49111;51.028;4.218;2022-07-29T03:14:52;5.85;;;2.72;;
62911;SDS011;49111;51.028;4.218;2022-07-29T03:17:19;3.80;;;2.55;;
62911;SDS011;49111;51.028;4.218;2022-07-29T03:19:46;5.82;;;2.83;;
62911;SDS011;49111;51.028;4.218;2022-07-29T03:22:12;5.65;;;2.65;;
62911;SDS011;49111;51.028;4.218;2022-07-29T03:24:39;5.28;;;2.80;;
62911;SDS011;49111;51.028;4.218;2022-07-29T03:27:04;5.20;;;2.80;;
62911;SDS011;49111;51.028;4.218;2022-07-29T03:29:30;5.32;;;3.03;;
62911;SDS011;49111;51.028;4.218;2022-07-29T03:31:56;5.47;;;3.50;;
62911;SDS011;49111;51.028;4.218;2022-07-29T03:34:22;4.72;;;2.67;;
62911;SDS011;49111;51.028;4.218;2022-07-29T03:36:48;4.97;;;3.28;;
62911;SDS011;49111;51.028;4.218;2022-07-29T03:39:15;6.07;;;2.90;;
62911;SDS011;49111;51.028;4.218;2022-07-29T03:41:48;3.33;;;2.80;;
62911;SDS011;49111;51.028;4.218;2022-07-29T03:44:17;4.65;;;2.80;;
62911;SDS011;49111;51.028;4.218;2022-07-29T03:46:44;4.15;;;2.75;;
62911;SDS011;49111;51.028;4.218;2022-07-29T03:49:11;4.82;;;2.72;;
62911;SDS011;49111;51.028;4.218;2022-07-29T03:51:39;5.30;;;3.13;;
62911;SDS011;49111;51.028;4.218;2022-07-29T03:54:06;6.03;;;2.67;;
62911;SDS011;49111;51.028;4.218;2022-07-29T03:56:32;6.97;;;3.03;;
62911;SDS011;49111;51.028;4.218;2022-07-29T03:59:02;5.70;;;2.95;;
62911;SDS011;49111;51.028;4.218;2022-07-29T04:01:29;7.65;;;3.10;;
62911;SDS011;49111;51.028;4.218;2022-07-29T04:03:57;5.32;;;3.30;;
62911;SDS011;49111;51.028;4.218;2022-07-29T04:06:23;6.03;;;3.13;;
62911;SDS011;49111;51.028;4.218;2022-07-29T04:08:50;5.30;;;3.28;;
62911;SDS011;49111;51.028;4.218;2022-07-29T04:11:16;5.03;;;3.33;;
62911;SDS011;49111;51.028;4.218;2022-07-29T04:13:42;8.15;;;3.22;;
62911;SDS011;49111;51.028;4.218;2022-07-29T04:16:08;5.35;;;3.17;;
62911;SDS011;49111;51.028;4.218;2022-07-29T04:18:34;3.70;;;2.80;;
62911;SDS011;49111;51.028;4.218;2022-07-29T04:20:59;7.28;;;3.25;;
62911;SDS011;49111;51.028;4.218;2022-07-29T04:23:26;4.13;;;2.70;;
62911;SDS011;49111;51.028;4.218;2022-07-29T04:25:54;5.45;;;3.30;;
62911;SDS011;49111;51.028;4.218;2022-07-29T04:28:20;4.57;;;3.03;;
62911;SDS011;49111;51.028;4.218;2022-07-29T04:30:45;4.90;;;2.88;;
62911;SDS011;49111;51.028;4.218;2022-07-29T04:33:11;5.57;;;2.83;;
62911;SDS011;49111;51.028;4.218;2022-07-29T04:35:37;4.93;;;2.75;;
62911;SDS011;49111;51.028;4.218;2022-07-29T04:38:04;6.50;;;3.20;;
62911;SDS011;49111;51.028;4.218;2022-07-29T04:40:30;4.28;;;2.85;;
62911;SDS011;49111;51.028;4.218;2022-07-29T04:42:58;6.50;;;2.70;;
62911;SDS011;49111;51.028;4.218;2022-07-29T04:45:24;4.45;;;2.53;;
62911;SDS011;49111;51.028;4.218;2022-07-29T04:47:50;4.80;;;2.60;;
62911;SDS011;49111;51.028;4.218;2022-07-29T04:50:16;6.82;;;3.00;;
62911;SDS011;49111;51.028;4.218;2022-07-29T04:52:43;4.72;;;2.70;;
62911;SDS011;49111;51.028;4.218;2022-07-29T04:55:08;5.63;;;2.58;;
62911;SDS011;49111;51.028;4.218;2022-07-29T04:57:34;5.45;;;3.13;;
62911;SDS011;49111;51.028;4.218;2022-07-29T05:00:00;5.10;;;3.15;;
62911;SDS011;49111;51.028;4.218;2022-07-29T05:02:26;6.68;;;3.88;;
62911;SDS011;49111;51.028;4.218;2022-07-29T05:04:52;7.22;;;2.88;;
62911;SDS011;49111;51.028;4.218;2022-07-29T05:07:17;3.40;;;2.35;;
62911;SDS011;49111;51.028;4.218;2022-07-29T05:09:43;4.90;;;2.67;;
62911;SDS011;49111;51.028;4.218;2022-07-29T05:12:09;5.03;;;2.55;;
62911;SDS011;49111;51.028;4.218;2022-07-29T05:14:35;6.70;;;2.63;;
62911;SDS011;49111;51.028;4.218;2022-07-29T05:17:00;5.13;;;2.67;;
62911;SDS011;49111;51.028;4.218;2022-07-29T05:19:26;4.15;;;2.92;;
62911;SDS011;49111;51.028;4.218;2022-07-29T05:21:53;3.75;;;2.47;;
62911;SDS011;49111;51.028;4.218;2022-07-29T05:24:19;4.38;;;2.95;;
62911;SDS011;49111;51.028;4.218;2022-07-29T05:26:44;3.63;;;2.35;;
62911;SDS011;49111;51.028;4.218;2022-07-29T05:29:10;4.65;;;2.67;;
62911;SDS011;49111;51.028;4.218;2022-07-29T05:31:36;5.60;;;3.00;;
62911;SDS011;49111;51.028;4.218;2022-07-29T05:34:02;6.32;;;3.55;;
62911;SDS011;49111;51.028;4.218;2022-07-29T05:36:27;4.57;;;3.38;;
62911;SDS011;49111;51.028;4.218;2022-07-29T05:38:53;4.63;;;2.67;;
62911;SDS011;49111;51.028;4.218;2022-07-29T05:41:19;5.75;;;3.15;;
62911;SDS011;49111;51.028;4.218;2022-07-29T05:43:44;3.10;;;2.78;;
62911;SDS011;49111;51.028;4.218;2022-07-29T05:46:11;4.30;;;3.25;;
62911;SDS011;49111;51.028;4.218;2022-07-29T05:48:36;5.72;;;2.72;;
62911;SDS011;49111;51.028;4.218;2022-07-29T05:51:02;5.80;;;4.00;;
62911;SDS011;49111;51.028;4.218;2022-07-29T05:53:28;4.80;;;3.15;;
62911;SDS011;49111;51.028;4.218;2022-07-29T05:55:54;7.82;;;3.25;;
62911;SDS011;49111;51.028;4.218;2022-07-29T05:58:19;4.97;;;2.88;;
62911;SDS011;49111;51.028;4.218;2022-07-29T06:00:45;3.85;;;2.85;;
62911;SDS011;49111;51.028;4.218;2022-07-29T06:03:11;4.47;;;3.00;;
62911;SDS011;49111;51.028;4.218;2022-07-29T06:05:37;5.50;;;3.25;;
62911;SDS011;49111;51.028;4.218;2022-07-29T06:08:03;5.38;;;3.15;;
62911;SDS011;49111;51.028;4.218;2022-07-29T06:10:34;5.50;;;2.70;;
62911;SDS011;49111;51.028;4.218;2022-07-29T06:13:00;4.50;;;3.05;;
62911;SDS011;49111;51.028;4.218;2022-07-29T06:15:26;5.82;;;2.90;;
62911;SDS011;49111;51.028;4.218;2022-07-29T06:17:52;4.45;;;3.38;;
62911;SDS011;49111;51.028;4.218;2022-07-29T06:20:18;5.25;;;3.20;;
62911;SDS011;49111;51.028;4.218;2022-07-29T06:22:44;5.25;;;3.45;;
62911;SDS011;49111;51.028;4.218;2022-07-29T06:25:10;7.28;;;3.75;;
62911;SDS011;49111;51.028;4.218;2022-07-29T06:27:36;5.90;;;3.25;;
62911;SDS011;49111;51.028;4.218;2022-07-29T06:30:02;4.97;;;3.10;;
62911;SDS011;49111;51.028;4.218;2022-07-29T06:32:28;5.28;;;3.20;;
62911;SDS011;49111;51.028;4.218;2022-07-29T06:34:56;8.85;;;3.80;;
62911;SDS011;49111;51.028;4.218;2022-07-29T06:37:21;6.05;;;3.20;;
62911;SDS011;49111;51.028;4.218;2022-07-29T06:39:47;5.45;;;3.80;;
62911;SDS011;49111;51.028;4.218;2022-07-29T06:42:13;5.15;;;3.08;;
62911;SDS011;49111;51.028;4.218;2022-07-29T06:44:40;5.40;;;3.10;;
62911;SDS011;49111;51.028;4.218;2022-07-29T06:47:06;4.82;;;3.63;;
62911;SDS011;49111;51.028;4.218;2022-07-29T06:49:32;5.95;;;3.53;;
62911;SDS011;49111;51.028;4.218;2022-07-29T06:51:58;4.50;;;3.28;;
62911;SDS011;49111;51.028;4.218;2022-07-29T06:54:24;5.30;;;3.00;;
62911;SDS011;49111;51.028;4.218;2022-07-29T06:56:49;6.18;;;3.13;;
62911;SDS011;49111;51.028;4.218;2022-07-29T06:59:15;5.28;;;2.83;;
62911;SDS011;49111;51.028;4.218;2022-07-29T07:01:41;5.97;;;3.20;;
62911;SDS011;49111;51.028;4.218;2022-07-29T07:04:08;8.57;;;3.30;;
62911;SDS011;49111;51.028;4.218;2022-07-29T07:06:35;5.00;;;3.25;;
62911;SDS011;49111;51.028;4.218;2022-07-29T07:09:01;5.78;;;3.30;;
62911;SDS011;49111;51.028;4.218;2022-07-29T07:11:27;6.22;;;3.20;;
62911;SDS011;49111;51.028;4.218;2022-07-29T07:13:53;6.50;;;3.58;;
62911;SDS011;49111;51.028;4.218;2022-07-29T07:16:19;4.85;;;2.85;;
62911;SDS011;49111;51.028;4.218;2022-07-29T07:18:45;5.82;;;3.20;;
62911;SDS011;49111;51.028;4.218;2022-07-29T07:21:11;6.00;;;3.92;;
62911;SDS011;49111;51.028;4.218;2022-07-29T07:23:37;6.32;;;3.42;;
62911;SDS011;49111;51.028;4.218;2022-07-29T07:26:03;6.13;;;3.13;;
62911;SDS011;49111;51.028;4.218;2022-07-29T07:28:31;4.13;;;3.35;;
62911;SDS011;49111;51.028;4.218;2022-07-29T07:30:57;5.60;;;3.55;;
62911;SDS011;49111;51.028;4.218;2022-07-29T07:33:22;9.05;;;3.45;;
62911;SDS011;49111;51.028;4.218;2022-07-29T07:35:48;7.03;;;5.20;;
62911;SDS011;49111;51.028;4.218;2022-07-29T07:38:14;6.20;;;3.03;;
62911;SDS011;49111;51.028;4.218;2022-07-29T07:40:40;6.55;;;3.60;;
62911;SDS011;49111;51.028;4.218;2022-07-29T07:43:06;5.20;;;3.70;;
62911;SDS011;49111;51.028;4.218;2022-07-29T07:45:32;6.07;;;2.95;;
62911;SDS011;49111;51.028;4.218;2022-07-29T07:47:58;5.95;;;3.35;;
62911;SDS011;49111;51.028;4.218;2022-07-29T07:50:24;6.35;;;3.30;;
62911;SDS011;49111;51.028;4.218;2022-07-29T07:52:50;6.53;;;3.10;;
62911;SDS011;49111;51.028;4.218;2022-07-29T07:55:18;4.85;;;3.22;;
62911;SDS011;49111;51.028;4.218;2022-07-29T07:57:45;6.10;;;3.13;;
62911;SDS011;49111;51.028;4.218;2022-07-29T08:00:12;11.55;;;4.13;;
62911;SDS011;49111;51.028;4.218;2022-07-29T08:02:39;6.82;;;4.45;;
62911;SDS011;49111;51.028;4.218;2022-07-29T08:05:05;9.65;;;4.47;;
62911;SDS011;49111;51.028;4.218;2022-07-29T08:07:32;7.72;;;4.07;;
62911;SDS011;49111;51.028;4.218;2022-07-29T08:09:59;8.52;;;4.75;;
62911;SDS011;49111;51.028;4.218;2022-07-29T08:12:25;5.70;;;3.78;;
62911;SDS011;49111;51.028;4.218;2022-07-29T08:14:51;9.30;;;4.95;;
62911;SDS011;49111;51.028;4.218;2022-07-29T08:17:18;7.35;;;4.40;;
62911;SDS011;49111;51.028;4.218;2022-07-29T08:19:43;6.72;;;3.65;;
62911;SDS011;49111;51.028;4.218;2022-07-29T08:22:09;8.70;;;4.82;;
62911;SDS011;49111;51.028;4.218;2022-07-29T08:24:35;5.20;;;3.33;;
62911;SDS011;49111;51.028;4.218;2022-07-29T08:27:17;7.05;;;3.58;;
62911;SDS011;49111;51.028;4.218;2022-07-29T08:29:44;6.78;;;3.80;;
62911;SDS011;49111;51.028;4.218;2022-07-29T08:32:10;5.97;;;3.70;;
62911;SDS011;49111;51.028;4.218;2022-07-29T08:34:35;8.00;;;3.60;;
62911;SDS011;49111;51.028;4.218;2022-07-29T08:37:01;9.10;;;4.00;;
62911;SDS011;49111;51.028;4.218;2022-07-29T08:39:28;6.20;;;4.05;;
62911;SDS011;49111;51.028;4.218;2022-07-29T08:41:54;5.78;;;3.45;;
62911;SDS011;49111;51.028;4.218;2022-07-29T08:44:20;4.45;;;3.50;;
62911;SDS011;49111;51.028;4.218;2022-07-29T08:46:47;6.82;;;3.20;;
62911;SDS011;49111;51.028;4.218;2022-07-29T08:49:14;7.82;;;4.20;;
62911;SDS011;49111;51.028;4.218;2022-07-29T08:51:41;5.90;;;4.32;;
62911;SDS011;49111;51.028;4.218;2022-07-29T08:54:08;7.10;;;4.68;;
62911;SDS011;49111;51.028;4.218;2022-07-29T08:56:34;12.95;;;5.20;;
62911;SDS011;49111;51.028;4.218;2022-07-29T08:59:02;6.45;;;4.60;;
62911;SDS011;49111;51.028;4.218;2022-07-29T09:01:30;8.52;;;5.13;;
62911;SDS011;49111;51.028;4.218;2022-07-29T09:03:57;9.02;;;5.15;;
62911;SDS011;49111;51.028;4.218;2022-07-29T09:06:29;5.72;;;4.40;;
62911;SDS011;49111;51.028;4.218;2022-07-29T09:08:59;11.57;;;5.72;;
62911;SDS011;49111;51.028;4.218;2022-07-29T09:11:25;10.77;;;5.20;;
62911;SDS011;49111;51.028;4.218;2022-07-29T09:13:52;8.65;;;5.30;;
62911;SDS011;49111;51.028;4.218;2022-07-29T09:16:18;12.30;;;6.50;;
62911;SDS011;49111;51.028;4.218;2022-07-29T09:18:44;8.40;;;5.28;;
62911;SDS011;49111;51.028;4.218;2022-07-29T09:21:14;8.55;;;4.78;;
62911;SDS011;49111;51.028;4.218;2022-07-29T09:24:01;8.50;;;4.78;;
62911;SDS011;49111;51.028;4.218;2022-07-29T09:26:29;8.27;;;5.28;;
62911;SDS011;49111;51.028;4.218;2022-07-29T09:28:56;7.13;;;5.32;;
62911;SDS011;49111;51.028;4.218;2022-07-29T09:31:32;9.27;;;4.82;;
62911;SDS011;49111;51.028;4.218;2022-07-29T09:34:03;11.13;;;5.20;;
62911;SDS011;49111;51.028;4.218;2022-07-29T09:36:29;9.60;;;5.55;;
62911;SDS011;49111;51.028;4.218;2022-07-29T09:39:02;9.05;;;5.53;;
62911;SDS011;49111;51.028;4.218;2022-07-29T09:41:28;8.35;;;4.82;;
62911;SDS011;49111;51.028;4.218;2022-07-29T09:43:55;7.72;;;4.75;;
62911;SDS011;49111;51.028;4.218;2022-07-29T09:46:22;9.02;;;3.88;;
62911;SDS011;49111;51.028;4.218;2022-07-29T09:49:05;6.22;;;3.83;;
62911;SDS011;49111;51.028;4.218;2022-07-29T09:53:58;7.30;;;3.35;;
62911;SDS011;49111;51.028;4.218;2022-07-29T09:56:38;8.18;;;3.53;;
62911;SDS011;49111;51.028;4.218;2022-07-29T09:59:06;12.73;;;3.47;;
62911;SDS011;49111;51.028;4.218;2022-07-29T10:01:32;4.47;;;2.92;;
62911;SDS011;49111;51.028;4.218;2022-07-29T10:03:58;7.07;;;3.72;;
62911;SDS011;49111;51.028;4.218;2022-07-29T10:06:24;5.45;;;3.30;;
62911;SDS011;49111;51.028;4.218;2022-07-29T10:08:50;6.38;;;3.42;;
62911;SDS011;49111;51.028;4.218;2022-07-29T10:11:17;7.25;;;3.22;;
62911;SDS011;49111;51.028;4.218;2022-07-29T10:13:44;5.50;;;3.10;;
62911;SDS011;49111;51.028;4.218;2022-07-29T10:16:12;7.45;;;2.35;;
62911;SDS011;49111;51.028;4.218;2022-07-29T10:18:39;4.53;;;2.88;;
62911;SDS011;49111;51.028;4.218;2022-07-29T10:21:09;6.43;;;3.17;;
62911;SDS011;49111;51.028;4.218;2022-07-29T10:23:35;4.20;;;3.03;;
62911;SDS011;49111;51.028;4.218;2022-07-29T10:26:02;7.15;;;2.80;;
62911;SDS011;49111;51.028;4.218;2022-07-29T10:28:32;4.88;;;2.92;;
62911;SDS011;49111;51.028;4.218;2022-07-29T10:31:00;6.43;;;2.85;;
62911;SDS011;49111;51.028;4.218;2022-07-29T10:36:32;7.57;;;3.38;;
62911;SDS011;49111;51.028;4.218;2022-07-29T10:42:07;5.38;;;3.50;;
62911;SDS011;49111;51.028;4.218;2022-07-29T10:44:49;5.35;;;2.45;;
62911;SDS011;49111;51.028;4.218;2022-07-29T10:47:25;5.72;;;2.50;;
62911;SDS011;49111;51.028;4.218;2022-07-29T10:50:09;5.88;;;3.08;;
62911;SDS011;49111;51.028;4.218;2022-07-29T10:52:56;6.60;;;2.35;;
62911;SDS011;49111;51.028;4.218;2022-07-29T10:55:34;7.25;;;2.20;;
62911;SDS011;49111;51.028;4.218;2022-07-29T10:58:12;6.75;;;2.90;;
62911;SDS011;49111;51.028;4.218;2022-07-29T11:00:42;6.25;;;2.30;;
62911;SDS011;49111;51.028;4.218;2022-07-29T11:03:09;7.15;;;2.90;;
62911;SDS011;49111;51.028;4.218;2022-07-29T11:05:54;5.60;;;2.33;;
62911;SDS011;49111;51.028;4.218;2022-07-29T11:08:21;6.57;;;2.50;;
62911;SDS011;49111;51.028;4.218;2022-07-29T11:10:52;3.78;;;2.33;;
62911;SDS011;49111;51.028;4.218;2022-07-29T11:13:45;4.07;;;2.75;;
62911;SDS011;49111;51.028;4.218;2022-07-29T11:16:16;4.75;;;2.20;;
62911;SDS011;49111;51.028;4.218;2022-07-29T11:19:18;4.47;;;2.03;;
62911;SDS011;49111;51.028;4.218;2022-07-29T11:21:43;4.72;;;2.58;;
62911;SDS011;49111;51.028;4.218;2022-07-29T11:24:15;8.02;;;3.08;;
62911;SDS011;49111;51.028;4.218;2022-07-29T11:29:38;4.47;;;2.30;;
62911;SDS011;49111;51.028;4.218;2022-07-29T11:32:10;4.47;;;2.20;;
62911;SDS011;49111;51.028;4.218;2022-07-29T11:34:37;3.67;;;2.28;;
62911;SDS011;49111;51.028;4.218;2022-07-29T11:47:39;5.18;;;2.17;;
62911;SDS011;49111;51.028;4.218;2022-07-29T11:50:12;4.45;;;2.58;;
62911;SDS011;49111;51.028;4.218;2022-07-29T11:55:19;6.10;;;2.60;;
62911;SDS011;49111;51.028;4.218;2022-07-29T12:02:53;5.50;;;2.53;;
62911;SDS011;49111;51.028;4.218;2022-07-29T12:05:20;5.30;;;2.78;;
62911;SDS011;49111;51.028;4.218;2022-07-29T12:07:47;5.68;;;2.20;;
62911;SDS011;49111;51.028;4.218;2022-07-29T12:10:13;7.18;;;2.30;;
62911;SDS011;49111;51.028;4.218;2022-07-29T12:12:40;5.15;;;2.55;;
62911;SDS011;49111;51.028;4.218;2022-07-29T12:15:15;5.07;;;2.35;;
62911;SDS011;49111;51.028;4.218;2022-07-29T12:17:45;5.35;;;2.22;;
62911;SDS011;49111;51.028;4.218;2022-07-29T12:20:11;7.95;;;2.03;;
62911;SDS011;49111;51.028;4.218;2022-07-29T12:22:39;3.78;;;2.30;;
62911;SDS011;49111;51.028;4.218;2022-07-29T12:25:07;2.58;;;1.73;;
62911;SDS011;49111;51.028;4.218;2022-07-29T12:27:35;5.20;;;2.15;;
62911;SDS011;49111;51.028;4.218;2022-07-29T12:30:10;4.50;;;2.13;;
62911;SDS011;49111;51.028;4.218;2022-07-29T12:32:42;3.72;;;1.80;;
62911;SDS011;49111;51.028;4.218;2022-07-29T12:35:13;3.95;;;2.35;;
62911;SDS011;49111;51.028;4.218;2022-07-29T12:37:41;3.63;;;2.15;;
62911;SDS011;49111;51.028;4.218;2022-07-29T12:40:09;4.35;;;2.50;;
62911;SDS011;49111;51.028;4.218;2022-07-29T12:42:37;4.57;;;2.25;;
62911;SDS011;49111;51.028;4.218;2022-07-29T12:45:04;3.22;;;1.65;;
62911;SDS011;49111;51.028;4.218;2022-07-29T12:47:30;6.65;;;2.22;;
62911;SDS011;49111;51.028;4.218;2022-07-29T12:50:11;3.65;;;1.70;;
62911;SDS011;49111;51.028;4.218;2022-07-29T12:52:43;5.25;;;2.00;;
62911;SDS011;49111;51.028;4.218;2022-07-29T12:55:10;4.68;;;1.63;;
62911;SDS011;49111;51.028;4.218;2022-07-29T12:57:46;4.10;;;1.58;;
62911;SDS011;49111;51.028;4.218;2022-07-29T13:00:13;4.07;;;2.28;;
62911;SDS011;49111;51.028;4.218;2022-07-29T13:02:40;4.85;;;2.00;;
62911;SDS011;49111;51.028;4.218;2022-07-29T13:05:09;4.15;;;1.98;;
62911;SDS011;49111;51.028;4.218;2022-07-29T13:07:37;6.15;;;1.70;;
62911;SDS011;49111;51.028;4.218;2022-07-29T13:15:35;7.18;;;2.08;;
62911;SDS011;49111;51.028;4.218;2022-07-29T13:18:04;5.43;;;2.13;;
62911;SDS011;49111;51.028;4.218;2022-07-29T13:20:49;4.47;;;1.88;;
62911;SDS011;49111;51.028;4.218;2022-07-29T13:23:15;5.90;;;2.38;;
62911;SDS011;49111;51.028;4.218;2022-07-29T13:25:41;4.75;;;2.33;;
62911;SDS011;49111;51.028;4.218;2022-07-29T13:28:07;5.60;;;2.72;;
62911;SDS011;49111;51.028;4.218;2022-07-29T13:30:33;5.68;;;2.38;;
62911;SDS011;49111;51.028;4.218;2022-07-29T13:32:59;3.50;;;1.90;;
62911;SDS011;49111;51.028;4.218;2022-07-29T13:35:25;4.55;;;1.92;;
62911;SDS011;49111;51.028;4.218;2022-07-29T13:37:53;5.25;;;2.00;;
62911;SDS011;49111;51.028;4.218;2022-07-29T13:40:19;5.45;;;1.75;;
62911;SDS011;49111;51.028;4.218;2022-07-29T13:42:45;7.82;;;2.28;;
62911;SDS011;49111;51.028;4.218;2022-07-29T13:45:11;5.38;;;2.50;;
62911;SDS011;49111;51.028;4.218;2022-07-29T13:47:37;5.57;;;2.45;;
62911;SDS011;49111;51.028;4.218;2022-07-29T13:50:03;5.95;;;2.65;;
62911;SDS011;49111;51.028;4.218;2022-07-29T13:52:30;6.30;;;2.13;;
62911;SDS011;49111;51.028;4.218;2022-07-29T13:54:56;4.53;;;2.00;;
62911;SDS011;49111;51.028;4.218;2022-07-29T13:57:22;5.82;;;2.83;;
62911;SDS011;49111;51.028;4.218;2022-07-29T13:59:48;4.50;;;3.03;;
62911;SDS011;49111;51.028;4.218;2022-07-29T14:02:14;5.28;;;2.53;;
62911;SDS011;49111;51.028;4.218;2022-07-29T14:04:39;6.43;;;2.28;;
62911;SDS011;49111;51.028;4.218;2022-07-29T14:07:05;5.78;;;2.47;;
62911;SDS011;49111;51.028;4.218;2022-07-29T14:09:31;5.72;;;3.00;;
62911;SDS011;49111;51.028;4.218;2022-07-29T14:11:57;5.38;;;2.25;;
62911;SDS011;49111;51.028;4.218;2022-07-29T14:14:23;5.57;;;2.70;;
62911;SDS011;49111;51.028;4.218;2022-07-29T14:16:49;4.68;;;2.80;;
62911;SDS011;49111;51.028;4.218;2022-07-29T14:19:14;5.97;;;2.53;;
62911;SDS011;49111;51.028;4.218;2022-07-29T14:21:40;3.28;;;2.47;;
62911;SDS011;49111;51.028;4.218;2022-07-29T14:24:06;6.43;;;3.17;;
62911;SDS011;49111;51.028;4.218;2022-07-29T14:26:32;6.03;;;2.42;;
62911;SDS011;49111;51.028;4.218;2022-07-29T14:28:57;6.38;;;2.50;;
62911;SDS011;49111;51.028;4.218;2022-07-29T14:31:23;4.18;;;2.20;;
62911;SDS011;49111;51.028;4.218;2022-07-29T14:33:49;4.68;;;2.33;;
62911;SDS011;49111;51.028;4.218;2022-07-29T14:36:15;6.65;;;2.50;;
62911;SDS011;49111;51.028;4.218;2022-07-29T14:38:41;9.15;;;2.90;;
62911;SDS011;49111;51.028;4.218;2022-07-29T14:41:07;4.22;;;2.50;;
62911;SDS011;49111;51.028;4.218;2022-07-29T14:43:33;5.43;;;2.75;;
62911;SDS011;49111;51.028;4.218;2022-07-29T14:46:00;3.83;;;2.53;;
62911;SDS011;49111;51.028;4.218;2022-07-29T14:48:26;5.13;;;2.85;;
62911;SDS011;49111;51.028;4.218;2022-07-29T14:50:52;6.78;;;2.88;;
62911;SDS011;49111;51.028;4.218;2022-07-29T14:53:19;3.75;;;2.33;;
62911;SDS011;49111;51.028;4.218;2022-07-29T14:55:45;4.57;;;2.92;;
62911;SDS011;49111;51.028;4.218;2022-07-29T14:58:11;4.15;;;2.67;;
62911;SDS011;49111;51.028;4.218;2022-07-29T15:00:37;3.85;;;2.28;;
62911;SDS011;49111;51.028;4.218;2022-07-29T15:03:03;4.15;;;1.95;;
62911;SDS011;49111;51.028;4.218;2022-07-29T15:05:30;5.93;;;2.45;;
62911;SDS011;49111;51.028;4.218;2022-07-29T15:07:57;9.55;;;2.70;;
62911;SDS011;49111;51.028;4.218;2022-07-29T15:10:23;3.95;;;2.38;;
62911;SDS011;49111;51.028;4.218;2022-07-29T15:12:52;7.32;;;2.80;;
62911;SDS011;49111;51.028;4.218;2022-07-29T15:15:18;2.75;;;2.00;;
62911;SDS011;49111;51.028;4.218;2022-07-29T15:17:44;4.78;;;2.22;;
62911;SDS011;49111;51.028;4.218;2022-07-29T15:20:10;5.90;;;2.40;;
62911;SDS011;49111;51.028;4.218;2022-07-29T15:22:37;4.70;;;2.13;;
62911;SDS011;49111;51.028;4.218;2022-07-29T15:25:03;5.47;;;2.25;;
62911;SDS011;49111;51.028;4.218;2022-07-29T15:27:30;4.90;;;2.28;;
62911;SDS011;49111;51.028;4.218;2022-07-29T15:29:55;6.05;;;2.33;;
62911;SDS011;49111;51.028;4.218;2022-07-29T15:32:21;9.45;;;3.30;;
62911;SDS011;49111;51.028;4.218;2022-07-29T15:34:47;5.50;;;3.22;;
62911;SDS011;49111;51.028;4.218;2022-07-29T15:37:13;5.50;;;2.80;;
62911;SDS011;49111;51.028;4.218;2022-07-29T15:39:38;6.18;;;2.83;;